Opasatika, Canada
Current Conditions -  °F | °C
As of 10:00 PM on Friday 21 Nov 2014 (Local Time) from CYYU Reporting Station
Light Snow Light Snow  
Wind Chill: -14°   Ceiling: 2500
Heat Index: -6°   Visibility: 12mi
Dew Point: -9°   Wind: 17mph
Humidity: 80%   Direction: 210°SSW
Pressure: 29.73"   Gusts: 28mph
Location:  49.53°N, 82.87°W
Report Text: CYYU 220300Z 21015G24KT 12SM -SN DRSN OVC025 M06/M09 A2973 RMK SC8 PRESFR SLP087
Loading
Personal Weather Stations






























Interactive Weather Map New forecast layout! Learn more

10-Day Weather Forecast

Advertisements
Track Severe Weather on mobile